Airfield :
LOGIN :

Register | Disclaimer

   EN    FR    IT 

 










Legend :    VFR   Marginal VFR   IFR   Intensive IFR   Very Intensive IFR
Visi :
Ceiling :
>= 8 km
>= 3000ft
5 to 8 km
1000 to 3000 ft
1500m to 5 km
500 to 1000 ft
800 to 1500m
200 to 500 ft
< 800m
< 200 ft
Symbols :   Thunderstorms  Fog  Heavy snow  Heavy precipitations  Wind > 20 kt
SIGMETs :     Misc.  Thunderstorms  Icing  Turbulence  Mountain Waves  Volcanic Ashes







- Airport Elevation : 313 ft
- IATA code : LEH
- Download approach charts


LFOH - Le Havre Octeville

CURRENT METAR :
  • 181800Z AUTO 13010KT CAVOK 03/M02 Q1015 NOSIG

EXPIRED METARs :
  • 181730Z AUTO 13011KT CAVOK 03/M02 Q1015 NOSIG
  • 181700Z AUTO 13010KT CAVOK 04/M03 Q1015 NOSIG
  • 181630Z AUTO 13011KT CAVOK 04/M03 Q1015 NOSIG
  • 181600Z AUTO 13009KT CAVOK 05/M03 Q1015 NOSIG
  • 181530Z AUTO 14009KT CAVOK 05/M03 Q1016 NOSIG

TAF AMD TAF LFOH
Valid from the 18 at 17:00 until the 19 at 12:00 UTC


181727Z 1817/1912 16010KT CAVOK
BECMG 1906/1910 OVC011
PROB40
TEMPO 1906/1910 2000 FZRA
TEMPO 1910/1912 3000 -RA OVC005
ATIS : +33 2 35 54 64 93
No reported NOTAMs for that airfield.



MET'MAP, your aeronautical weather chart ! - Copyright ORBIFLY December 2007 - Disclaimer

ORBIFLY MET'MAP TEAM :

Programming & Development : Alexandra Zaïnal
Concept & Development : Baudouin d'Aumeries
Co-Development & Prog : Marc-Olivier Méhu
Technical & hardware support : Manuel Goepfert

Contact : metmap@orbifly.com




SOURCES & CREDITS :

   NOAA